ΕΜΥ, Εθνική Μετεωρολογική Υπηρεσία - Δελτία Καιρού, Προγνώσεις

ΑΕΡΟΝΑΥΤΙΛΙΑ

GREEK AIRPORTS CODES

LGMG 260600Z 04010G24KT 9999 FEW020 SCT030 18/08 Q1024 RMK SCT070=

EUROPEAN AIRPORTS CODES

LFPO 260700Z 04004KT 010V080 CAVOK 09/04 Q1034 NOSIG=